Agawam, Massachusetts
Current Conditions -  °F | °C
As of 4:53 AM on Thursday 23 Oct 2014 (Local Time) from KBAF Reporting Station
Light Rain Light Rain  
Wind Chill: 50°   Ceiling: 1400
Heat Index: 50°   Visibility: 8mi
Dew Point: 46°   Wind: 20mph
Humidity: 86%   Direction: 10°N
Pressure: 29.73"   Gusts: 29mph
Location:  42.07°N, 72.61°W
Report Text: KBAF 230853Z 01017G25KT 8SM -RA BKN014 OVC040 10/08 A2973 RMK AO2 RAE0756B32 SLP068 P0001 60024 T01000078 58007
Loading
Personal Weather Stations






























Interactive Weather Map
Tropical Storm Tracking
New forecast layout! Learn more

10-Day Weather Forecast

Advertisements
Track Severe Weather on mobile